sensor_id;sensor_type;location;lat;lon;timestamp;pressure;altitude;pressure_sealevel;temperature;humidity
80629;BME280;69983;42.370;-71.210;2023-08-06T00:00:13;101228.02;;;23.49;25.96
80629;BME280;69983;42.370;-71.210;2023-08-06T00:02:03;101230.01;;;23.08;26.20
80629;BME280;69983;42.370;-71.210;2023-08-06T00:04:10;101231.46;;;23.29;26.04
80629;BME280;69983;42.370;-71.210;2023-08-06T00:06:05;101231.26;;;22.93;25.96
80629;BME280;69983;42.370;-71.210;2023-08-06T00:08:05;101230.53;;;22.85;26.00
80629;BME280;69983;42.370;-71.210;2023-08-06T00:10:07;101229.37;;;22.87;26.21
80629;BME280;69983;42.370;-71.210;2023-08-06T00:12:06;101231.58;;;23.09;25.89
80629;BME280;69983;42.370;-71.210;2023-08-06T00:14:06;101229.28;;;23.79;25.46
80629;BME280;69983;42.370;-71.210;2023-08-06T00:16:11;101233.25;;;24.96;24.67
80629;BME280;69983;42.370;-71.210;2023-08-06T00:18:07;101238.14;;;25.75;24.00
80629;BME280;69983;42.370;-71.210;2023-08-06T00:20:13;101244.16;;;25.71;24.24
80629;BME280;69983;42.370;-71.210;2023-08-06T00:22:08;101247.47;;;26.39;24.07
80629;BME280;69983;42.370;-71.210;2023-08-06T00:24:09;101258.75;;;25.76;24.53
80629;BME280;69983;42.370;-71.210;2023-08-06T00:26:14;101258.56;;;25.88;24.21
80629;BME280;69983;42.370;-71.210;2023-08-06T00:28:10;101259.68;;;25.31;24.44
80629;BME280;69983;42.370;-71.210;2023-08-06T00:30:11;101258.65;;;24.43;24.95
80629;BME280;69983;42.370;-71.210;2023-08-06T00:32:16;101263.16;;;24.32;24.93
80629;BME280;69983;42.370;-71.210;2023-08-06T00:34:11;101262.54;;;24.49;24.77
80629;BME280;69983;42.370;-71.210;2023-08-06T00:36:11;101265.02;;;24.74;24.26
80629;BME280;69983;42.370;-71.210;2023-08-06T00:38:11;101267.76;;;24.14;24.57
80629;BME280;69983;42.370;-71.210;2023-08-06T00:40:12;101270.27;;;24.23;24.36
80629;BME280;69983;42.370;-71.210;2023-08-06T00:42:13;101278.38;;;24.07;24.50
80629;BME280;69983;42.370;-71.210;2023-08-06T00:44:18;101277.37;;;24.36;24.47
80629;BME280;69983;42.370;-71.210;2023-08-06T00:46:14;101283.61;;;25.29;23.91
80629;BME280;69983;42.370;-71.210;2023-08-06T00:48:15;101290.73;;;25.82;23.66
80629;BME280;69983;42.370;-71.210;2023-08-06T00:50:15;101294.70;;;25.66;23.73
80629;BME280;69983;42.370;-71.210;2023-08-06T00:52:15;101297.60;;;25.56;23.74
80629;BME280;69983;42.370;-71.210;2023-08-06T00:54:15;101299.12;;;25.52;24.00
80629;BME280;69983;42.370;-71.210;2023-08-06T00:56:16;101301.82;;;25.04;24.16
80629;BME280;69983;42.370;-71.210;2023-08-06T00:58:16;101301.00;;;25.34;24.05
80629;BME280;69983;42.370;-71.210;2023-08-06T01:00:17;101298.69;;;24.81;23.95
80629;BME280;69983;42.370;-71.210;2023-08-06T01:02:16;101303.71;;;25.16;23.69
80629;BME280;69983;42.370;-71.210;2023-08-06T01:04:17;101306.57;;;24.84;23.82
80629;BME280;69983;42.370;-71.210;2023-08-06T01:06:22;101307.02;;;24.71;23.74
80629;BME280;69983;42.370;-71.210;2023-08-06T01:08:26;101313.08;;;24.32;24.12
80629;BME280;69983;42.370;-71.210;2023-08-06T01:10:25;101311.68;;;25.13;24.06
80629;BME280;69983;42.370;-71.210;2023-08-06T01:12:28;101311.68;;;25.40;23.80
80629;BME280;69983;42.370;-71.210;2023-08-06T01:14:30;101313.99;;;25.54;23.81
80629;BME280;69983;42.370;-71.210;2023-08-06T01:16:24;101315.97;;;25.53;23.54
80629;BME280;69983;42.370;-71.210;2023-08-06T01:18:27;101318.09;;;25.57;23.80
80629;BME280;69983;42.370;-71.210;2023-08-06T01:20:20;101318.92;;;24.58;24.15
80629;BME280;69983;42.370;-71.210;2023-08-06T01:22:21;101321.28;;;25.13;23.92
80629;BME280;69983;42.370;-71.210;2023-08-06T01:24:21;101321.65;;;24.96;23.96
80629;BME280;69983;42.370;-71.210;2023-08-06T01:26:26;101322.17;;;24.62;23.99
80629;BME280;69983;42.370;-71.210;2023-08-06T01:28:29;101324.98;;;24.49;23.81
80629;BME280;69983;42.370;-71.210;2023-08-06T01:30:27;101326.63;;;24.98;23.93
80629;BME280;69983;42.370;-71.210;2023-08-06T01:32:23;101329.75;;;25.55;23.81
80629;BME280;69983;42.370;-71.210;2023-08-06T01:34:25;101332.06;;;25.46;23.66
80629;BME280;69983;42.370;-71.210;2023-08-06T01:36:24;101335.35;;;25.63;23.70
80629;BME280;69983;42.370;-71.210;2023-08-06T01:38:24;101336.74;;;25.44;24.28
80629;BME280;69983;42.370;-71.210;2023-08-06T01:40:24;101337.06;;;25.60;24.13
80629;BME280;69983;42.370;-71.210;2023-08-06T01:42:25;101337.71;;;26.02;23.57
80629;BME280;69983;42.370;-71.210;2023-08-06T01:44:25;101343.74;;;25.56;23.69
80629;BME280;69983;42.370;-71.210;2023-08-06T01:46:26;101344.98;;;24.83;24.09
80629;BME280;69983;42.370;-71.210;2023-08-06T01:48:27;101345.01;;;25.41;23.65
80629;BME280;69983;42.370;-71.210;2023-08-06T01:50:27;101347.44;;;25.65;23.37
80629;BME280;69983;42.370;-71.210;2023-08-06T01:52:28;101347.68;;;26.13;23.36
80629;BME280;69983;42.370;-71.210;2023-08-06T01:54:28;101351.19;;;26.08;23.38
80629;BME280;69983;42.370;-71.210;2023-08-06T01:56:29;101351.44;;;26.26;23.40
80629;BME280;69983;42.370;-71.210;2023-08-06T01:58:30;101354.28;;;26.28;23.52
80629;BME280;69983;42.370;-71.210;2023-08-06T02:00:30;101354.42;;;26.31;23.63
80629;BME280;69983;42.370;-71.210;2023-08-06T02:02:31;101357.94;;;26.22;23.57
80629;BME280;69983;42.370;-71.210;2023-08-06T02:04:32;101354.96;;;25.98;23.47
80629;BME280;69983;42.370;-71.210;2023-08-06T02:06:33;101357.78;;;25.98;23.40
80629;BME280;69983;42.370;-71.210;2023-08-06T02:08:33;101359.48;;;25.77;23.37
80629;BME280;69983;42.370;-71.210;2023-08-06T02:10:34;101357.03;;;26.00;23.01
80629;BME280;69983;42.370;-71.210;2023-08-06T02:12:34;101362.67;;;26.12;23.18
80629;BME280;69983;42.370;-71.210;2023-08-06T02:14:35;101366.83;;;26.50;23.19
80629;BME280;69983;42.370;-71.210;2023-08-06T02:16:37;101369.27;;;26.41;23.27
80629;BME280;69983;42.370;-71.210;2023-08-06T02:18:36;101375.42;;;26.48;23.37
80629;BME280;69983;42.370;-71.210;2023-08-06T02:20:37;101379.86;;;26.36;23.49
80629;BME280;69983;42.370;-71.210;2023-08-06T02:22:37;101380.58;;;26.47;23.47
80629;BME280;69983;42.370;-71.210;2023-08-06T02:24:37;101387.22;;;26.13;23.20
80629;BME280;69983;42.370;-71.210;2023-08-06T02:26:38;101386.42;;;25.88;23.07
80629;BME280;69983;42.370;-71.210;2023-08-06T02:28:38;101387.33;;;25.89;22.95
80629;BME280;69983;42.370;-71.210;2023-08-06T02:30:38;101390.09;;;24.15;22.93
80629;BME280;69983;42.370;-71.210;2023-08-06T02:32:39;101390.43;;;24.84;22.43
80629;BME280;69983;42.370;-71.210;2023-08-06T02:34:39;101392.11;;;25.61;21.98
80629;BME280;69983;42.370;-71.210;2023-08-06T02:36:39;101393.30;;;25.77;21.97
80629;BME280;69983;42.370;-71.210;2023-08-06T02:38:40;101392.36;;;25.86;21.84
80629;BME280;69983;42.370;-71.210;2023-08-06T02:40:44;101394.48;;;27.60;21.85
80629;BME280;69983;42.370;-71.210;2023-08-06T02:42:41;101397.77;;;27.00;22.37
80629;BME280;69983;42.370;-71.210;2023-08-06T02:44:41;101401.54;;;26.66;22.73
80629;BME280;69983;42.370;-71.210;2023-08-06T02:46:42;101402.10;;;26.74;22.84
80629;BME280;69983;42.370;-71.210;2023-08-06T02:48:42;101401.04;;;26.17;22.86
80629;BME280;69983;42.370;-71.210;2023-08-06T02:50:43;101400.82;;;26.27;22.99
80629;BME280;69983;42.370;-71.210;2023-08-06T02:52:43;101406.09;;;25.59;23.20
80629;BME280;69983;42.370;-71.210;2023-08-06T02:54:43;101408.29;;;26.11;23.04
80629;BME280;69983;42.370;-71.210;2023-08-06T02:56:44;101404.44;;;26.43;22.87
80629;BME280;69983;42.370;-71.210;2023-08-06T02:58:44;101403.03;;;26.43;22.88
80629;BME280;69983;42.370;-71.210;2023-08-06T03:00:44;101403.38;;;26.38;23.04
80629;BME280;69983;42.370;-71.210;2023-08-06T03:02:44;101407.02;;;26.49;23.31
80629;BME280;69983;42.370;-71.210;2023-08-06T03:04:45;101408.40;;;26.65;23.39
80629;BME280;69983;42.370;-71.210;2023-08-06T03:06:45;101407.42;;;26.39;23.36
80629;BME280;69983;42.370;-71.210;2023-08-06T03:08:46;101404.55;;;26.39;23.33
80629;BME280;69983;42.370;-71.210;2023-08-06T03:10:46;101405.47;;;26.09;23.31
80629;BME280;69983;42.370;-71.210;2023-08-06T03:12:46;101404.78;;;26.16;23.14
80629;BME280;69983;42.370;-71.210;2023-08-06T03:14:46;101403.43;;;26.09;23.13
80629;BME280;69983;42.370;-71.210;2023-08-06T03:16:46;101402.41;;;25.64;23.17
80629;BME280;69983;42.370;-71.210;2023-08-06T03:18:46;101400.09;;;25.70;23.24
80629;BME280;69983;42.370;-71.210;2023-08-06T03:20:47;101402.52;;;26.15;23.06
80629;BME280;69983;42.370;-71.210;2023-08-06T03:22:47;101398.16;;;26.21;22.97
80629;BME280;69983;42.370;-71.210;2023-08-06T03:24:50;101400.55;;;26.29;23.26
80629;BME280;69983;42.370;-71.210;2023-08-06T03:26:48;101401.36;;;26.47;23.27
80629;BME280;69983;42.370;-71.210;2023-08-06T03:28:48;101403.08;;;26.44;23.40
80629;BME280;69983;42.370;-71.210;2023-08-06T03:30:58;101404.00;;;26.29;23.56
80629;BME280;69983;42.370;-71.210;2023-08-06T03:32:49;101406.82;;;25.96;23.56
80629;BME280;69983;42.370;-71.210;2023-08-06T03:34:50;101403.99;;;26.13;23.36
80629;BME280;69983;42.370;-71.210;2023-08-06T03:36:50;101400.86;;;25.99;23.33
80629;BME280;69983;42.370;-71.210;2023-08-06T03:38:50;101402.94;;;25.88;23.26
80629;BME280;69983;42.370;-71.210;2023-08-06T03:40:50;101401.18;;;25.32;23.26
80629;BME280;69983;42.370;-71.210;2023-08-06T03:42:51;101401.17;;;26.01;23.11
80629;BME280;69983;42.370;-71.210;2023-08-06T03:44:51;101402.20;;;25.95;23.03
80629;BME280;69983;42.370;-71.210;2023-08-06T03:46:52;101401.08;;;26.27;23.15
80629;BME280;69983;42.370;-71.210;2023-08-06T03:48:52;101397.94;;;26.06;23.28
80629;BME280;69983;42.370;-71.210;2023-08-06T03:50:53;101395.86;;;26.37;23.39
80629;BME280;69983;42.370;-71.210;2023-08-06T03:52:53;101399.19;;;26.13;23.66
80629;BME280;69983;42.370;-71.210;2023-08-06T03:54:54;101399.22;;;25.82;23.75
80629;BME280;69983;42.370;-71.210;2023-08-06T03:56:54;101398.22;;;25.28;23.77
80629;BME280;69983;42.370;-71.210;2023-08-06T03:58:54;101397.25;;;25.66;23.46
80629;BME280;69983;42.370;-71.210;2023-08-06T04:00:59;101395.98;;;25.39;23.33
80629;BME280;69983;42.370;-71.210;2023-08-06T04:02:55;101398.26;;;25.35;23.11
80629;BME280;69983;42.370;-71.210;2023-08-06T04:04:55;101396.44;;;25.73;23.01
80629;BME280;69983;42.370;-71.210;2023-08-06T04:06:55;101399.88;;;26.03;22.91
80629;BME280;69983;42.370;-71.210;2023-08-06T04:08:56;101395.26;;;26.21;23.09
80629;BME280;69983;42.370;-71.210;2023-08-06T04:10:55;101388.61;;;26.39;23.08
80629;BME280;69983;42.370;-71.210;2023-08-06T04:12:55;101388.60;;;26.06;23.27
80629;BME280;69983;42.370;-71.210;2023-08-06T04:14:58;101389.39;;;26.15;23.32
80629;BME280;69983;42.370;-71.210;2023-08-06T04:16:57;101388.61;;;26.03;23.46
80629;BME280;69983;42.370;-71.210;2023-08-06T04:18:57;101388.68;;;26.06;23.36
80629;BME280;69983;42.370;-71.210;2023-08-06T04:20:58;101390.48;;;25.81;23.33
80629;BME280;69983;42.370;-71.210;2023-08-06T04:22:58;101389.50;;;25.56;23.08
80629;BME280;69983;42.370;-71.210;2023-08-06T04:24:59;101389.89;;;25.22;23.43
80629;BME280;69983;42.370;-71.210;2023-08-06T04:26:59;101384.08;;;25.49;23.17
80629;BME280;69983;42.370;-71.210;2023-08-06T04:29:00;101381.81;;;26.14;22.96
80629;BME280;69983;42.370;-71.210;2023-08-06T04:31:00;101379.93;;;25.84;23.12
80629;BME280;69983;42.370;-71.210;2023-08-06T04:33:00;101380.77;;;25.96;23.19
80629;BME280;69983;42.370;-71.210;2023-08-06T04:35:01;101379.82;;;26.12;23.17
80629;BME280;69983;42.370;-71.210;2023-08-06T04:37:02;101375.82;;;26.07;23.34
80629;BME280;69983;42.370;-71.210;2023-08-06T04:39:01;101375.45;;;26.15;23.37
80629;BME280;69983;42.370;-71.210;2023-08-06T04:41:03;101371.98;;;25.77;23.22
80629;BME280;69983;42.370;-71.210;2023-08-06T04:43:01;101373.81;;;25.69;23.24
80629;BME280;69983;42.370;-71.210;2023-08-06T04:45:02;101375.59;;;25.67;23.13
80629;BME280;69983;42.370;-71.210;2023-08-06T04:47:03;101374.95;;;25.62;23.11
80629;BME280;69983;42.370;-71.210;2023-08-06T04:49:03;101378.81;;;25.86;23.15
80629;BME280;69983;42.370;-71.210;2023-08-06T04:51:04;101377.88;;;25.94;22.96
80629;BME280;69983;42.370;-71.210;2023-08-06T04:53:04;101377.94;;;25.91;23.09
80629;BME280;69983;42.370;-71.210;2023-08-06T04:55:05;101377.08;;;26.28;23.09
80629;BME280;69983;42.370;-71.210;2023-08-06T04:57:05;101376.92;;;26.22;23.29
80629;BME280;69983;42.370;-71.210;2023-08-06T04:59:05;101376.99;;;26.09;23.30
80629;BME280;69983;42.370;-71.210;2023-08-06T05:01:05;101370.15;;;26.03;23.44
80629;BME280;69983;42.370;-71.210;2023-08-06T05:03:06;101368.01;;;25.92;23.40
80629;BME280;69983;42.370;-71.210;2023-08-06T05:05:07;101365.69;;;25.86;23.26
80629;BME280;69983;42.370;-71.210;2023-08-06T05:07:07;101366.12;;;25.30;23.49
80629;BME280;69983;42.370;-71.210;2023-08-06T05:09:07;101369.72;;;24.98;23.52
80629;BME280;69983;42.370;-71.210;2023-08-06T05:11:07;101365.21;;;26.09;22.83
80629;BME280;69983;42.370;-71.210;2023-08-06T05:13:07;101361.25;;;26.14;22.68
80629;BME280;69983;42.370;-71.210;2023-08-06T05:15:09;101363.28;;;26.11;22.66
80629;BME280;69983;42.370;-71.210;2023-08-06T05:17:08;101364.30;;;25.94;22.91
80629;BME280;69983;42.370;-71.210;2023-08-06T05:19:09;101363.26;;;26.39;22.91
80629;BME280;69983;42.370;-71.210;2023-08-06T05:21:09;101366.78;;;26.10;23.00
80629;BME280;69983;42.370;-71.210;2023-08-06T05:23:10;101368.27;;;26.36;23.05
80629;BME280;69983;42.370;-71.210;2023-08-06T05:25:12;101372.17;;;26.12;23.24
80629;BME280;69983;42.370;-71.210;2023-08-06T05:27:10;101375.73;;;25.47;23.49
80629;BME280;69983;42.370;-71.210;2023-08-06T05:29:11;101378.22;;;25.55;23.19
80629;BME280;69983;42.370;-71.210;2023-08-06T05:31:11;101380.68;;;25.86;22.74
80629;BME280;69983;42.370;-71.210;2023-08-06T05:33:12;101379.86;;;25.87;22.63
80629;BME280;69983;42.370;-71.210;2023-08-06T05:35:13;101383.35;;;26.32;22.38
80629;BME280;69983;42.370;-71.210;2023-08-06T05:37:13;101384.85;;;26.07;22.48
80629;BME280;69983;42.370;-71.210;2023-08-06T05:39:13;101383.22;;;26.63;22.55
80629;BME280;69983;42.370;-71.210;2023-08-06T05:41:13;101377.87;;;26.40;22.63
80629;BME280;69983;42.370;-71.210;2023-08-06T05:43:14;101374.02;;;26.50;22.68
80629;BME280;69983;42.370;-71.210;2023-08-06T05:45:15;101373.16;;;26.34;22.80
80629;BME280;69983;42.370;-71.210;2023-08-06T05:47:15;101373.92;;;26.59;22.92
80629;BME280;69983;42.370;-71.210;2023-08-06T05:49:16;101376.98;;;26.00;23.16
80629;BME280;69983;42.370;-71.210;2023-08-06T05:51:16;101383.54;;;25.79;23.01
80629;BME280;69983;42.370;-71.210;2023-08-06T05:53:17;101391.26;;;25.42;23.12
80629;BME280;69983;42.370;-71.210;2023-08-06T05:55:19;101393.09;;;25.19;22.87
80629;BME280;69983;42.370;-71.210;2023-08-06T05:57:18;101386.03;;;26.01;22.46
80629;BME280;69983;42.370;-71.210;2023-08-06T05:59:18;101387.66;;;26.18;22.37
80629;BME280;69983;42.370;-71.210;2023-08-06T06:01:20;101387.11;;;26.42;22.33
80629;BME280;69983;42.370;-71.210;2023-08-06T06:03:20;101390.58;;;26.48;22.42
80629;BME280;69983;42.370;-71.210;2023-08-06T06:05:20;101392.65;;;26.34;22.47
80629;BME280;69983;42.370;-71.210;2023-08-06T06:07:20;101390.00;;;26.62;22.56
80629;BME280;69983;42.370;-71.210;2023-08-06T06:09:21;101387.17;;;26.11;22.69
80629;BME280;69983;42.370;-71.210;2023-08-06T06:11:21;101386.45;;;25.36;22.97
80629;BME280;69983;42.370;-71.210;2023-08-06T06:13:22;101390.92;;;25.21;23.10
80629;BME280;69983;42.370;-71.210;2023-08-06T06:15:22;101392.97;;;25.50;22.51
80629;BME280;69983;42.370;-71.210;2023-08-06T06:17:22;101388.61;;;25.61;22.41
80629;BME280;69983;42.370;-71.210;2023-08-06T06:19:23;101387.86;;;25.91;22.13
80629;BME280;69983;42.370;-71.210;2023-08-06T06:21:24;101389.27;;;26.18;22.20
80629;BME280;69983;42.370;-71.210;2023-08-06T06:23:24;101393.68;;;26.24;22.42
80629;BME280;69983;42.370;-71.210;2023-08-06T06:25:25;101397.28;;;26.34;22.50
80629;BME280;69983;42.370;-71.210;2023-08-06T06:27:25;101393.31;;;26.49;22.53
80629;BME280;69983;42.370;-71.210;2023-08-06T06:29:25;101393.67;;;26.34;22.73
80629;BME280;69983;42.370;-71.210;2023-08-06T06:31:26;101394.67;;;25.96;22.76
80629;BME280;69983;42.370;-71.210;2023-08-06T06:33:26;101394.27;;;25.73;22.89
80629;BME280;69983;42.370;-71.210;2023-08-06T06:35:27;101391.05;;;25.68;22.67
80629;BME280;69983;42.370;-71.210;2023-08-06T06:37:27;101391.37;;;25.45;22.46
80629;BME280;69983;42.370;-71.210;2023-08-06T06:39:27;101395.59;;;26.18;22.38
80629;BME280;69983;42.370;-71.210;2023-08-06T06:41:28;101397.39;;;26.00;22.45
80629;BME280;69983;42.370;-71.210;2023-08-06T06:43:28;101395.60;;;25.98;22.60
80629;BME280;69983;42.370;-71.210;2023-08-06T06:45:29;101396.90;;;26.04;22.68
80629;BME280;69983;42.370;-71.210;2023-08-06T06:47:29;101399.22;;;26.26;22.63
80629;BME280;69983;42.370;-71.210;2023-08-06T06:49:29;101401.27;;;26.21;22.76
80629;BME280;69983;42.370;-71.210;2023-08-06T06:51:30;101400.54;;;25.78;22.94
80629;BME280;69983;42.370;-71.210;2023-08-06T06:53:30;101403.05;;;25.65;22.79
80629;BME280;69983;42.370;-71.210;2023-08-06T06:55:30;101409.12;;;25.15;22.94
80629;BME280;69983;42.370;-71.210;2023-08-06T06:57:30;101407.25;;;25.29;22.54
80629;BME280;69983;42.370;-71.210;2023-08-06T06:59:31;101413.13;;;26.10;22.40
80629;BME280;69983;42.370;-71.210;2023-08-06T07:01:31;101416.77;;;26.09;22.53
80629;BME280;69983;42.370;-71.210;2023-08-06T07:03:32;101419.68;;;25.82;22.67
80629;BME280;69983;42.370;-71.210;2023-08-06T07:05:32;101419.78;;;25.89;22.77
80629;BME280;69983;42.370;-71.210;2023-08-06T07:07:32;101415.21;;;26.35;22.73
80629;BME280;69983;42.370;-71.210;2023-08-06T07:09:32;101408.62;;;25.99;22.79
80629;BME280;69983;42.370;-71.210;2023-08-06T07:11:33;101401.82;;;26.04;22.78
80629;BME280;69983;42.370;-71.210;2023-08-06T07:13:34;101403.23;;;26.23;22.88
80629;BME280;69983;42.370;-71.210;2023-08-06T07:15:34;101408.91;;;26.42;22.94
80629;BME280;69983;42.370;-71.210;2023-08-06T07:17:35;101407.52;;;26.24;22.97
80629;BME280;69983;42.370;-71.210;2023-08-06T07:19:35;101409.40;;;26.11;23.07
80629;BME280;69983;42.370;-71.210;2023-08-06T07:21:36;101409.52;;;26.06;22.84
80629;BME280;69983;42.370;-71.210;2023-08-06T07:23:36;101413.63;;;25.76;22.80
80629;BME280;69983;42.370;-71.210;2023-08-06T07:25:37;101420.61;;;24.74;23.12
80629;BME280;69983;42.370;-71.210;2023-08-06T07:27:38;101418.41;;;25.32;22.92
80629;BME280;69983;42.370;-71.210;2023-08-06T07:29:38;101416.25;;;25.45;23.26
80629;BME280;69983;42.370;-71.210;2023-08-06T07:31:38;101415.97;;;25.15;23.26
80629;BME280;69983;42.370;-71.210;2023-08-06T07:33:38;101415.40;;;25.40;23.37
80629;BME280;69983;42.370;-71.210;2023-08-06T07:35:39;101418.79;;;25.52;23.36
80629;BME280;69983;42.370;-71.210;2023-08-06T07:37:39;101422.22;;;25.19;23.52
80629;BME280;69983;42.370;-71.210;2023-08-06T07:39:39;101422.35;;;25.16;23.80
80629;BME280;69983;42.370;-71.210;2023-08-06T07:41:40;101421.10;;;25.38;23.71
80629;BME280;69983;42.370;-71.210;2023-08-06T07:43:40;101419.16;;;25.34;23.79
80629;BME280;69983;42.370;-71.210;2023-08-06T07:45:41;101417.78;;;25.73;23.50
80629;BME280;69983;42.370;-71.210;2023-08-06T07:47:41;101415.60;;;25.70;23.26
80629;BME280;69983;42.370;-71.210;2023-08-06T07:49:41;101413.72;;;25.70;23.14
80629;BME280;69983;42.370;-71.210;2023-08-06T07:51:42;101413.32;;;25.18;23.01
80629;BME280;69983;42.370;-71.210;2023-08-06T07:53:42;101409.94;;;25.44;22.84
80629;BME280;69983;42.370;-71.210;2023-08-06T07:55:42;101413.87;;;24.88;23.35
80629;BME280;69983;42.370;-71.210;2023-08-06T07:57:42;101411.33;;;25.28;23.34
80629;BME280;69983;42.370;-71.210;2023-08-06T07:59:42;101408.00;;;25.00;23.48
80629;BME280;69983;42.370;-71.210;2023-08-06T08:01:42;101413.66;;;25.07;23.53
80629;BME280;69983;42.370;-71.210;2023-08-06T08:03:43;101418.61;;;25.35;23.59
80629;BME280;69983;42.370;-71.210;2023-08-06T08:05:44;101418.17;;;25.41;23.61
80629;BME280;69983;42.370;-71.210;2023-08-06T08:07:43;101415.91;;;25.22;23.45
80629;BME280;69983;42.370;-71.210;2023-08-06T08:09:43;101415.66;;;25.39;23.58
80629;BME280;69983;42.370;-71.210;2023-08-06T08:11:43;101408.43;;;25.27;23.74
80629;BME280;69983;42.370;-71.210;2023-08-06T08:13:43;101406.24;;;25.32;23.77
80629;BME280;69983;42.370;-71.210;2023-08-06T08:15:44;101408.04;;;25.68;23.54
80629;BME280;69983;42.370;-71.210;2023-08-06T08:17:43;101411.93;;;25.48;23.27
80629;BME280;69983;42.370;-71.210;2023-08-06T08:19:44;101420.01;;;24.87;23.35
80629;BME280;69983;42.370;-71.210;2023-08-06T08:21:44;101417.68;;;24.91;23.14
80629;BME280;69983;42.370;-71.210;2023-08-06T08:23:44;101417.74;;;25.08;23.26
80629;BME280;69983;42.370;-71.210;2023-08-06T08:25:44;101420.08;;;24.94;23.31
80629;BME280;69983;42.370;-71.210;2023-08-06T08:27:44;101422.35;;;24.87;23.47
80629;BME280;69983;42.370;-71.210;2023-08-06T08:29:44;101427.29;;;24.94;23.76
80629;BME280;69983;42.370;-71.210;2023-08-06T08:31:44;101429.35;;;25.52;23.44
80629;BME280;69983;42.370;-71.210;2023-08-06T08:33:44;101429.30;;;25.12;23.47
80629;BME280;69983;42.370;-71.210;2023-08-06T08:35:46;101427.23;;;25.61;23.34
80629;BME280;69983;42.370;-71.210;2023-08-06T08:37:45;101430.68;;;25.25;23.59
80629;BME280;69983;42.370;-71.210;2023-08-06T08:39:45;101428.57;;;25.16;23.31
80629;BME280;69983;42.370;-71.210;2023-08-06T08:41:45;101431.40;;;24.87;23.12
80629;BME280;69983;42.370;-71.210;2023-08-06T08:43:45;101430.93;;;24.79;23.06
80629;BME280;69983;42.370;-71.210;2023-08-06T08:45:47;101431.92;;;25.14;23.20
80629;BME280;69983;42.370;-71.210;2023-08-06T08:47:45;101435.58;;;24.80;23.39
80629;BME280;69983;42.370;-71.210;2023-08-06T08:49:46;101437.23;;;24.81;23.52
80629;BME280;69983;42.370;-71.210;2023-08-06T08:51:46;101438.32;;;25.12;23.58
80629;BME280;69983;42.370;-71.210;2023-08-06T08:53:48;101436.62;;;25.31;23.53
80629;BME280;69983;42.370;-71.210;2023-08-06T08:55:49;101431.97;;;24.96;23.70
80629;BME280;69983;42.370;-71.210;2023-08-06T08:57:46;101430.13;;;24.88;23.75
80629;BME280;69983;42.370;-71.210;2023-08-06T08:59:46;101435.25;;;24.97;23.37
80629;BME280;69983;42.370;-71.210;2023-08-06T09:01:48;101437.44;;;24.76;23.22
80629;BME280;69983;42.370;-71.210;2023-08-06T09:03:47;101437.94;;;24.77;23.02
80629;BME280;69983;42.370;-71.210;2023-08-06T09:05:51;101439.92;;;24.83;23.36
80629;BME280;69983;42.370;-71.210;2023-08-06T09:07:49;101442.17;;;24.81;23.50
80629;BME280;69983;42.370;-71.210;2023-08-06T09:09:49;101443.49;;;24.82;23.44
80629;BME280;69983;42.370;-71.210;2023-08-06T09:11:48;101444.15;;;24.93;23.44
80629;BME280;69983;42.370;-71.210;2023-08-06T09:13:47;101447.89;;;25.46;23.31
80629;BME280;69983;42.370;-71.210;2023-08-06T09:15:47;101447.43;;;25.46;23.41
80629;BME280;69983;42.370;-71.210;2023-08-06T09:17:47;101447.26;;;25.63;23.34
80629;BME280;69983;42.370;-71.210;2023-08-06T09:19:47;101446.72;;;25.03;23.40
80629;BME280;69983;42.370;-71.210;2023-08-06T09:21:51;101446.51;;;25.19;23.32
80629;BME280;69983;42.370;-71.210;2023-08-06T09:23:47;101443.94;;;24.35;23.34
80629;BME280;69983;42.370;-71.210;2023-08-06T09:25:48;101443.08;;;24.65;23.41
80629;BME280;69983;42.370;-71.210;2023-08-06T09:27:48;101443.69;;;24.90;23.33
80629;BME280;69983;42.370;-71.210;2023-08-06T09:29:48;101443.99;;;24.62;23.68
80629;BME280;69983;42.370;-71.210;2023-08-06T09:31:49;101447.32;;;24.59;23.83
80629;BME280;69983;42.370;-71.210;2023-08-06T09:33:48;101450.40;;;24.76;23.83
80629;BME280;69983;42.370;-71.210;2023-08-06T09:35:48;101445.30;;;25.08;23.70
80629;BME280;69983;42.370;-71.210;2023-08-06T09:37:48;101449.22;;;24.84;23.97
80629;BME280;69983;42.370;-71.210;2023-08-06T09:39:48;101453.08;;;24.59;24.14
80629;BME280;69983;42.370;-71.210;2023-08-06T09:41:56;101454.48;;;23.86;24.26
80629;BME280;69983;42.370;-71.210;2023-08-06T09:43:50;101456.47;;;23.88;23.90
80629;BME280;69983;42.370;-71.210;2023-08-06T09:45:50;101452.85;;;23.49;24.04
80629;BME280;69983;42.370;-71.210;2023-08-06T09:47:52;101455.29;;;23.51;23.77
80629;BME280;69983;42.370;-71.210;2023-08-06T09:49:51;101453.87;;;24.05;23.60
80629;BME280;69983;42.370;-71.210;2023-08-06T09:51:52;101458.63;;;24.29;23.49
80629;BME280;69983;42.370;-71.210;2023-08-06T09:53:52;101464.47;;;24.21;23.44
80629;BME280;69983;42.370;-71.210;2023-08-06T09:55:53;101465.48;;;24.30;23.46
80629;BME280;69983;42.370;-71.210;2023-08-06T09:57:54;101463.95;;;24.53;23.36
80629;BME280;69983;42.370;-71.210;2023-08-06T09:59:53;101465.76;;;24.66;23.43
80629;BME280;69983;42.370;-71.210;2023-08-06T10:01:54;101461.42;;;24.38;23.44
80629;BME280;69983;42.370;-71.210;2023-08-06T10:03:54;101460.61;;;24.07;23.18
80629;BME280;69983;42.370;-71.210;2023-08-06T10:05:55;101464.91;;;23.61;23.27
80629;BME280;69983;42.370;-71.210;2023-08-06T10:07:54;101463.43;;;24.41;23.17
80629;BME280;69983;42.370;-71.210;2023-08-06T10:09:53;101458.42;;;24.12;23.29
80629;BME280;69983;42.370;-71.210;2023-08-06T10:11:54;101460.00;;;23.93;23.53